createdAt,value
2022-11-08T00:00:17.749Z,1014.816071
2022-11-08T00:05:17.508Z,1014.828541
2022-11-08T00:10:17.739Z,1014.866246
2022-11-08T00:15:17.542Z,1014.807191
2022-11-08T00:20:17.443Z,1014.813606
2022-11-08T00:25:17.820Z,1014.852652
2022-11-08T00:30:17.656Z,1014.835904
2022-11-08T00:35:17.886Z,1014.912348
2022-11-08T00:40:17.392Z,1014.979217
2022-11-08T00:45:17.399Z,1014.949044
2022-11-08T00:50:17.513Z,1014.938619
2022-11-08T00:55:17.498Z,1014.884190
2022-11-08T01:05:17.384Z,1014.711119
2022-11-08T01:10:17.518Z,1014.643889
2022-11-08T01:15:17.500Z,1014.610476
2022-11-08T01:20:17.398Z,1014.552884
2022-11-08T01:25:17.355Z,1014.558151
2022-11-08T01:30:17.421Z,1014.506980
2022-11-08T01:35:17.467Z,1014.534885
2022-11-08T01:40:17.763Z,1014.506770
2022-11-08T01:45:17.375Z,1014.479735
2022-11-08T01:50:17.402Z,1014.440019
2022-11-08T01:55:17.376Z,1014.429129
2022-11-08T02:00:17.447Z,1014.373625
2022-11-08T02:05:17.781Z,1014.313688
2022-11-08T02:10:17.705Z,1014.294255
2022-11-08T02:15:17.697Z,1014.281342
2022-11-08T02:20:17.450Z,1014.365839
2022-11-08T02:25:17.400Z,1014.384233
2022-11-08T02:30:17.333Z,1014.388233
2022-11-08T02:35:17.444Z,1014.391763
2022-11-08T02:40:17.648Z,1014.409988
2022-11-08T02:45:17.405Z,1014.356320
2022-11-08T02:50:17.462Z,1014.357760
2022-11-08T02:55:17.385Z,1014.363007
2022-11-08T03:00:17.506Z,1014.370398
2022-11-08T03:05:17.420Z,1014.375149
2022-11-08T03:10:17.313Z,1014.408324
2022-11-08T03:15:17.335Z,1014.451068
2022-11-08T03:20:17.335Z,1014.501516
2022-11-08T03:25:17.636Z,1014.521497
2022-11-08T03:30:17.996Z,1014.479538
2022-11-08T03:35:17.382Z,1014.469654
2022-11-08T03:40:17.312Z,1014.493570
2022-11-08T03:45:17.360Z,1014.548231
2022-11-08T03:50:17.391Z,1014.510318
2022-11-08T03:55:17.418Z,1014.445440
2022-11-08T04:00:17.449Z,1014.396372
2022-11-08T04:05:17.365Z,1014.401265
2022-11-08T04:10:17.345Z,1014.433538
2022-11-08T04:15:17.397Z,1014.443421
2022-11-08T04:20:17.621Z,1014.433038
2022-11-08T04:25:17.283Z,1014.501076
2022-11-08T04:30:17.457Z,1014.499963
2022-11-08T04:35:17.662Z,1014.428647
2022-11-08T04:40:17.499Z,1014.388104
2022-11-08T04:45:17.385Z,1014.381428
2022-11-08T04:50:17.319Z,1014.424205
2022-11-08T04:55:17.407Z,1014.471982
2022-11-08T05:00:17.327Z,1014.517733
2022-11-08T05:05:17.297Z,1014.507010
2022-11-08T05:10:17.385Z,1014.475663
2022-11-08T05:15:17.365Z,1014.453737
2022-11-08T05:20:17.474Z,1014.448713
2022-11-08T05:25:17.278Z,1014.411414
2022-11-08T05:30:17.346Z,1014.409841
2022-11-08T05:35:17.412Z,1014.414237
2022-11-08T05:40:17.833Z,1014.438644
2022-11-08T05:45:17.555Z,1014.415167
2022-11-08T05:50:19.528Z,1014.356967
2022-11-08T05:55:17.251Z,1014.385575
2022-11-08T06:00:17.468Z,1014.403320
2022-11-08T06:05:17.317Z,1014.411480
2022-11-08T06:10:17.333Z,1014.388851
2022-11-08T06:15:17.287Z,1014.349574
2022-11-08T06:20:17.329Z,1014.349242
2022-11-08T06:25:17.333Z,1014.340307
2022-11-08T06:30:17.268Z,1014.338367
2022-11-08T06:35:17.420Z,1014.273746
2022-11-08T06:40:17.333Z,1014.327490
2022-11-08T06:45:17.670Z,1014.336875
2022-11-08T06:50:17.528Z,1014.363392
2022-11-08T06:55:17.383Z,1014.400392
2022-11-08T07:00:17.364Z,1014.315720
2022-11-08T07:05:17.416Z,1014.246313
2022-11-08T07:10:17.258Z,1014.236710
2022-11-08T07:15:17.352Z,1014.246009
2022-11-08T07:20:17.529Z,1014.244434
2022-11-08T07:25:17.285Z,1014.247639
2022-11-08T07:30:17.384Z,1014.257603
2022-11-08T07:35:17.345Z,1014.284734
2022-11-08T07:40:17.276Z,1014.225493
2022-11-08T07:45:17.320Z,1014.241706
2022-11-08T07:50:17.996Z,1014.197736
2022-11-08T07:55:17.275Z,1014.204524
2022-11-08T08:00:17.244Z,1014.175030
2022-11-08T08:05:17.435Z,1014.120236
2022-11-08T08:10:17.263Z,1014.100864
2022-11-08T08:15:17.276Z,1014.091253
2022-11-08T08:20:17.270Z,1014.042528
2022-11-08T08:25:17.433Z,1014.024090
2022-11-08T08:30:17.424Z,1013.938326
2022-11-08T08:35:17.346Z,1013.848518
2022-11-08T08:40:17.219Z,1013.791090
2022-11-08T08:45:17.222Z,1013.669603
2022-11-08T08:50:17.292Z,1013.601387
2022-11-08T08:55:17.308Z,1013.577294
2022-11-08T09:05:17.522Z,1013.472648
2022-11-08T09:10:17.314Z,1013.381111
2022-11-08T09:15:17.275Z,1013.334178
2022-11-08T09:20:17.257Z,1013.356991
2022-11-08T09:25:17.280Z,1013.301206
2022-11-08T09:30:17.240Z,1013.269689
2022-11-08T09:35:17.271Z,1013.236052
2022-11-08T09:40:22.629Z,1013.194450
2022-11-08T09:45:17.203Z,1013.220386
2022-11-08T09:50:17.618Z,1013.164394
2022-11-08T09:55:17.357Z,1013.164058
2022-11-08T10:00:17.249Z,1013.117205
2022-11-08T10:05:17.312Z,1013.026617
2022-11-08T10:10:17.222Z,1012.938898
2022-11-08T10:15:17.633Z,1012.842592
2022-11-08T10:20:17.591Z,1012.840211
2022-11-08T10:25:17.403Z,1012.811040
2022-11-08T10:30:17.332Z,1012.829221
2022-11-08T10:35:17.249Z,1012.844197
2022-11-08T10:40:17.371Z,1012.820999
2022-11-08T10:45:17.116Z,1012.758640
2022-11-08T10:50:17.266Z,1012.716873
2022-11-08T10:55:17.413Z,1012.643261
2022-11-08T11:00:17.585Z,1012.598791
2022-11-08T11:05:17.472Z,1012.546257
2022-11-08T11:10:17.399Z,1012.409309
2022-11-08T11:15:17.231Z,1012.329762
2022-11-08T11:20:17.270Z,1012.292296
2022-11-08T11:25:17.166Z,1012.280219
2022-11-08T11:30:17.269Z,1012.226425
2022-11-08T11:35:17.243Z,1012.185514
2022-11-08T11:40:17.186Z,1012.219019
2022-11-08T11:45:17.285Z,1012.133021
2022-11-08T11:50:17.416Z,1012.110348
2022-11-08T11:55:17.205Z,1012.047779
2022-11-08T12:00:17.166Z,1011.906912
2022-11-08T12:05:17.262Z,1011.887762
2022-11-08T12:10:17.288Z,1011.879407
2022-11-08T12:15:17.251Z,1011.890699
2022-11-08T12:20:17.217Z,1011.870959
2022-11-08T12:25:17.402Z,1011.807208
2022-11-08T12:30:17.651Z,1011.715690
2022-11-08T12:35:17.322Z,1011.660601
2022-11-08T12:40:17.672Z,1011.649641
2022-11-08T12:45:17.263Z,1011.570363
2022-11-08T12:50:17.379Z,1011.488418
2022-11-08T12:55:17.156Z,1011.464060
2022-11-08T13:00:17.248Z,1011.467730
2022-11-08T13:05:17.167Z,1011.422006
2022-11-08T13:10:17.340Z,1011.335461
2022-11-08T13:15:17.161Z,1011.318779
2022-11-08T13:20:17.276Z,1011.318616
2022-11-08T13:25:17.411Z,1011.275073
2022-11-08T13:30:17.452Z,1011.298320
2022-11-08T13:35:17.405Z,1011.200122
2022-11-08T13:40:17.312Z,1011.222803
2022-11-08T13:45:17.211Z,1011.209221
2022-11-08T13:50:17.190Z,1011.101402
2022-11-08T13:55:17.256Z,1011.151985
2022-11-08T14:00:17.442Z,1011.119169
2022-11-08T14:05:17.236Z,1011.127433
2022-11-08T14:10:17.208Z,1011.152504
2022-11-08T14:15:17.185Z,1011.242703
2022-11-08T14:20:17.170Z,1011.244157
2022-11-08T14:25:17.165Z,1011.224434
2022-11-08T14:30:17.517Z,1011.217307
2022-11-08T14:35:17.237Z,1011.128486
2022-11-08T14:40:17.324Z,1011.175140
2022-11-08T14:45:20.617Z,1011.224905
2022-11-08T14:50:17.559Z,1011.166030
2022-11-08T14:55:17.315Z,1011.217027
2022-11-08T15:00:17.229Z,1011.207786
2022-11-08T15:05:17.185Z,1011.229705
2022-11-08T15:10:17.132Z,1011.229473
2022-11-08T15:15:17.291Z,1011.210273
2022-11-08T15:20:17.144Z,1011.271876
2022-11-08T15:25:17.135Z,1011.335561
2022-11-08T15:30:17.128Z,1011.384450
2022-11-08T15:35:17.210Z,1011.323669
2022-11-08T15:40:17.144Z,1011.318025
2022-11-08T15:45:17.153Z,1011.333034
2022-11-08T15:50:17.191Z,1011.385402
2022-11-08T15:55:17.085Z,1011.369224
2022-11-08T16:00:17.257Z,1011.362068
2022-11-08T16:05:17.266Z,1011.326563
2022-11-08T16:10:17.182Z,1011.308633
2022-11-08T16:15:17.129Z,1011.327512
2022-11-08T16:20:17.291Z,1011.353338
2022-11-08T16:25:17.292Z,1011.391075
2022-11-08T16:30:17.342Z,1011.394198
2022-11-08T16:35:17.586Z,1011.369391
2022-11-08T16:40:17.176Z,1011.311376
2022-11-08T16:45:17.176Z,1011.311963
2022-11-08T16:50:17.235Z,1011.300291
2022-11-08T16:55:17.898Z,1011.369232
2022-11-08T17:00:17.149Z,1011.398487
2022-11-08T17:05:17.142Z,1011.428048
2022-11-08T17:10:17.093Z,1011.506648
2022-11-08T17:15:17.424Z,1011.371471
2022-11-08T17:20:17.184Z,1011.396544
2022-11-08T17:25:17.061Z,1011.408143
2022-11-08T17:30:18.529Z,1011.406702
2022-11-08T17:35:17.444Z,1011.410667
2022-11-08T17:40:17.250Z,1011.441675
2022-11-08T17:45:17.103Z,1011.437676
2022-11-08T17:50:17.281Z,1011.412159
2022-11-08T17:55:17.128Z,1011.396512
2022-11-08T18:00:17.346Z,1011.375205
2022-11-08T18:05:17.021Z,1011.358093
2022-11-08T18:10:17.134Z,1011.285699
2022-11-08T18:15:17.065Z,1011.147470
2022-11-08T18:20:17.676Z,1011.095310
2022-11-08T18:25:17.053Z,1011.072047
2022-11-08T18:30:17.656Z,1011.065447
2022-11-08T18:35:17.112Z,1011.024365
2022-11-08T18:40:17.370Z,1010.997286
2022-11-08T18:45:17.383Z,1010.921628
2022-11-08T18:50:17.454Z,1010.813711
2022-11-08T18:55:17.147Z,1010.812032
2022-11-08T19:00:47.149Z,1010.820066
2022-11-08T19:05:17.064Z,1010.880054
2022-11-08T19:10:17.399Z,1010.861575
2022-11-08T19:15:17.310Z,1010.901871
2022-11-08T19:20:17.138Z,1010.865868
2022-11-08T19:25:17.166Z,1010.979702
2022-11-08T19:30:17.297Z,1011.019062
2022-11-08T19:35:17.135Z,1011.064327
2022-11-08T19:40:17.167Z,1011.063596
2022-11-08T19:45:17.293Z,1011.148896
2022-11-08T19:50:17.051Z,1011.204559
2022-11-08T19:55:17.263Z,1011.268407
2022-11-08T20:00:17.166Z,1011.319209
2022-11-08T20:05:17.148Z,1011.299279
2022-11-08T20:10:17.043Z,1011.324959
2022-11-08T20:15:17.037Z,1011.353122
2022-11-08T20:20:17.057Z,1011.332524
2022-11-08T20:25:17.017Z,1011.260382
2022-11-08T20:30:17.091Z,1011.163592
2022-11-08T20:35:19.225Z,1011.124105
2022-11-08T20:40:17.209Z,1011.101535
2022-11-08T20:45:17.029Z,1011.109891
2022-11-08T20:50:17.019Z,1011.081564
2022-11-08T20:55:17.093Z,1011.053309
2022-11-08T21:00:23.993Z,1011.066113
2022-11-08T21:05:17.344Z,1011.031623
2022-11-08T21:10:41.611Z,1011.017246
2022-11-08T21:15:17.147Z,1010.907152
2022-11-08T21:20:17.040Z,1010.862903
2022-11-08T21:25:16.947Z,1010.853333
2022-11-08T21:35:17.209Z,1010.771352
2022-11-08T21:40:17.084Z,1010.746228
2022-11-08T21:45:16.975Z,1010.721366
2022-11-08T21:50:17.122Z,1010.719494
2022-11-08T21:55:17.169Z,1010.723194
2022-11-08T22:00:17.029Z,1010.735379
2022-11-08T22:05:16.992Z,1010.686773
2022-11-08T22:10:17.199Z,1010.686756
2022-11-08T22:15:17.153Z,1010.736492
2022-11-08T22:20:16.997Z,1010.769842
2022-11-08T22:25:16.992Z,1010.786263
2022-11-08T22:30:17.161Z,1010.799470
2022-11-08T22:35:17.589Z,1010.759130
2022-11-08T22:40:17.225Z,1010.766351
2022-11-08T22:45:16.988Z,1010.700231
2022-11-08T22:50:16.984Z,1010.658659
2022-11-08T22:55:17.278Z,1010.661087
2022-11-08T23:00:16.998Z,1010.694244
2022-11-08T23:05:17.310Z,1010.666439
2022-11-08T23:10:17.015Z,1010.722913
2022-11-08T23:15:16.994Z,1010.721073
2022-11-08T23:20:16.965Z,1010.727837
2022-11-08T23:25:17.049Z,1010.738682
2022-11-08T23:30:16.966Z,1010.728197
2022-11-08T23:35:16.951Z,1010.761558
2022-11-08T23:40:17.066Z,1010.713774
2022-11-08T23:45:16.931Z,1010.763285
2022-11-08T23:50:17.229Z,1010.842760
2022-11-08T23:55:17.089Z,1010.815998
